Time;durP1;ratioP1;P1;durP2;ratioP2;P2;SDS_P1;SDS_P2;PMS_P1;PMS_P2;Temp;Humidity;BMP_temperature;BMP_pressure;BME280_temperature;BME280_humidity;BME280_pressure;Samples;Min_cycle;Max_cycle;Signal;HPM_P1;HPM_P2
2019/05/02 00:00:06;;;;;;;15.8;12;;;;;;;10.21;61.44238;956.0785;;;;
2019/05/02 00:02:31;;;;;;;15.6;12.4;;;;;;;10.03;63.35938;956.0905;;;;
2019/05/02 00:04:57;;;;;;;15.7;12.3;;;;;;;10.05;62.54688;956.1055;;;;
2019/05/02 00:07:22;;;;;;;17.9;13.3;;;;;;;9.96;64.0498;956.0403;;;;
2019/05/02 00:09:47;;;;;;;15.7;13.2;;;;;;;9.88;63.82129;956.0776;;;;
2019/05/02 00:12:14;;;;;;;17.3;12.9;;;;;;;9.71;64.51953;956.0536;;;;
2019/05/02 00:14:37;;;;;;;16.8;13.2;;;;;;;9.79;64.38184;956.0639;;;;
2019/05/02 00:17:02;;;;;;;15.3;13.2;;;;;;;9.69;65.50293;956.0645;;;;
2019/05/02 00:19:28;;;;;;;15.6;13.3;;;;;;;9.63;65.49316;956.0785;;;;
2019/05/02 00:21:53;;;;;;;18.3;13.9;;;;;;;9.58;65.28027;956.0092;;;;
2019/05/02 00:24:18;;;;;;;16.4;13.5;;;;;;;9.54;66.09961;956.0344;;;;
2019/05/02 00:26:43;;;;;;;16.3;14.5;;;;;;;9.53;66.04102;955.97;;;;
2019/05/02 00:29:09;;;;;;;17.3;14.1;;;;;;;9.51;65.78613;956.033;;;;
2019/05/02 00:31:34;;;;;;;16.8;14.1;;;;;;;9.43;65.92188;955.9277;;;;
2019/05/02 00:33:59;;;;;;;15.5;13.5;;;;;;;9.65;64.97949;955.942;;;;
2019/05/02 00:36:24;;;;;;;18;14.1;;;;;;;9.5;65.62402;955.9166;;;;
2019/05/02 00:38:49;;;;;;;15.7;13.4;;;;;;;9.76;63.99609;955.9414;;;;
2019/05/02 00:41:14;;;;;;;16;14.3;;;;;;;9.6;64.69727;955.8641;;;;
2019/05/02 00:43:39;;;;;;;15.8;14.1;;;;;;;9.62;65.06738;955.8585;;;;
2019/05/02 00:46:04;;;;;;;16.9;13.9;;;;;;;9.64;65.2207;955.8215;;;;
2019/05/02 00:48:36;;;;;;;16.1;14.4;;;;;;;9.63;64.12695;955.8137;;;;
2019/05/02 00:50:54;;;;;;;16;14.3;;;;;;;9.53;64.79004;955.7536;;;;
2019/05/02 00:53:20;;;;;;;16.2;14.5;;;;;;;9.62;63.1377;955.7495;;;;
2019/05/02 00:55:47;;;;;;;15.7;14.1;;;;;;;9.5;65.86523;955.7605;;;;
2019/05/02 00:58:16;;;;;;;15.5;13.6;;;;;;;9.38;65.31934;955.7536;;;;
2019/05/02 01:01:06;;;;;;;16.3;14.6;;;;;;;9.34;66.47168;955.757;;;;
2019/05/02 01:03:06;;;;;;;15.5;13.9;;;;;;;9.49;64.07227;955.7133;;;;
2019/05/02 01:05:31;;;;;;;18.2;14.7;;;;;;;9.33;65.83789;955.6631;;;;
2019/05/02 01:07:56;;;;;;;17.1;14.4;;;;;;;9.27;66.91992;955.6897;;;;
2019/05/02 01:12:01;;;;;;;16.1;14.4;;;;;;;9.17;66.51367;955.6425;;;;
2019/05/02 01:14:26;;;;;;;16.9;14.5;;;;;;;9.15;66.41992;955.6876;;;;
2019/05/02 01:16:52;;;;;;;17.2;14.7;;;;;;;9.15;66.99316;955.6567;;;;
2019/05/02 01:19:17;;;;;;;16.6;14;;;;;;;9.42;64.03906;955.5939;;;;
2019/05/02 01:21:42;;;;;;;16.5;14.5;;;;;;;9.33;65.51758;955.5891;;;;
2019/05/02 01:24:07;;;;;;;16.4;14.6;;;;;;;9.26;65.15137;955.5433;;;;
2019/05/02 01:26:36;;;;;;;16.2;14.5;;;;;;;9.12;66.20801;955.5602;;;;
2019/05/02 01:29:05;;;;;;;17;14.5;;;;;;;9;67.08398;955.5231;;;;
2019/05/02 01:31:33;;;;;;;16.6;14.5;;;;;;;8.87;68.32422;955.5037;;;;
2019/05/02 01:36:17;;;;;;;15.6;14;;;;;;;8.8;67.95898;955.4839;;;;
2019/05/02 01:38:41;;;;;;;16.5;14.3;;;;;;;8.76;69.15527;955.4612;;;;
2019/05/02 01:41:03;;;;;;;17.1;14.5;;;;;;;8.83;66.96582;955.4682;;;;
2019/05/02 01:43:28;;;;;;;16.5;14.6;;;;;;;8.83;67.53906;955.4942;;;;
2019/05/02 01:45:53;;;;;;;16.5;13.9;;;;;;;8.98;66.28906;955.4685;;;;
2019/05/02 01:48:18;;;;;;;15.4;13.1;;;;;;;9.08;66.63672;955.4207;;;;
2019/05/02 01:50:43;;;;;;;16.5;14.1;;;;;;;8.8;67.04199;955.4059;;;;
2019/05/02 01:53:08;;;;;;;15.3;13.8;;;;;;;8.81;67.78809;955.4352;;;;
2019/05/02 01:55:34;;;;;;;15.2;13.2;;;;;;;8.95;65.27539;955.389;;;;
2019/05/02 01:57:59;;;;;;;15.9;14.1;;;;;;;9;64.75586;955.4186;;;;
2019/05/02 02:00:24;;;;;;;15.3;13.3;;;;;;;8.96;64.94434;955.4185;;;;
2019/05/02 02:02:49;;;;;;;15.6;13.9;;;;;;;8.88;66.30762;955.356;;;;
2019/05/02 02:05:14;;;;;;;15.6;13.6;;;;;;;8.85;65.69629;955.3668;;;;
2019/05/02 02:07:39;;;;;;;14.8;13.3;;;;;;;8.73;66.14844;955.3945;;;;
2019/05/02 02:10:04;;;;;;;15.6;13.9;;;;;;;8.6;68.64941;955.3279;;;;
2019/05/02 02:12:29;;;;;;;14.7;13.2;;;;;;;8.66;66.56152;955.3576;;;;
2019/05/02 02:14:54;;;;;;;15.1;13.5;;;;;;;8.54;68.00781;955.4072;;;;
2019/05/02 02:17:20;;;;;;;14.9;13.3;;;;;;;8.49;68.59668;955.3979;;;;
2019/05/02 02:19:49;;;;;;;15;13.5;;;;;;;8.62;66.93262;955.3959;;;;
2019/05/02 02:24:38;;;;;;;14.9;13.3;;;;;;;8.53;67.37793;955.4031;;;;
2019/05/02 02:27:00;;;;;;;14.8;13.2;;;;;;;8.62;66.13086;955.4089;;;;
2019/05/02 02:29:25;;;;;;;16.1;13.3;;;;;;;8.52;67.65137;955.4733;;;;
2019/05/02 02:31:50;;;;;;;15.2;13.3;;;;;;;8.5;65.99805;955.4406;;;;
2019/05/02 02:34:16;;;;;;;15.4;13.1;;;;;;;8.44;66.9043;955.3769;;;;
2019/05/02 02:36:41;;;;;;;15.2;13;;;;;;;8.62;66.46387;955.4;;;;
2019/05/02 02:39:07;;;;;;;15;13;;;;;;;8.24;67.92676;955.4925;;;;
2019/05/02 02:41:32;;;;;;;14.4;12.4;;;;;;;8.18;68.78711;955.3897;;;;
2019/05/02 02:44:07;;;;;;;15.3;13.4;;;;;;;8.31;68.66016;955.3915;;;;
2019/05/02 02:46:25;;;;;;;15.8;13.3;;;;;;;8.08;69.05762;955.3203;;;;
2019/05/02 02:48:47;;;;;;;16;13;;;;;;;8.09;68.44141;955.3586;;;;
2019/05/02 02:51:12;;;;;;;14.7;13.1;;;;;;;8.22;68.28906;955.4124;;;;
2019/05/02 02:53:37;;;;;;;15.1;12.9;;;;;;;8.22;67.92285;955.3645;;;;
2019/05/02 02:56:02;;;;;;;15.2;13.3;;;;;;;8.01;68.24609;955.2692;;;;
2019/05/02 02:58:29;;;;;;;15.1;12.3;;;;;;;8.29;67.70703;955.35;;;;
2019/05/02 03:00:54;;;;;;;15.3;12.8;;;;;;;8.24;67.10254;955.3326;;;;
2019/05/02 03:03:19;;;;;;;15.3;13.4;;;;;;;8;69;955.3267;;;;
2019/05/02 03:05:44;;;;;;;14.6;13;;;;;;;7.77;68.98535;955.3287;;;;
2019/05/02 03:08:09;;;;;;;16.8;13.3;;;;;;;7.85;71.10254;955.3088;;;;
2019/05/02 03:10:35;;;;;;;14.7;13.1;;;;;;;7.92;69.95801;955.2558;;;;
2019/05/02 03:13:33;;;;;;;14.1;12.6;;;;;;;8.04;68.70801;955.2974;;;;
2019/05/02 03:15:25;;;;;;;14.4;12.4;;;;;;;8.24;67.34375;955.2936;;;;
2019/05/02 03:17:53;;;;;;;16.9;12.7;;;;;;;8.3;67.2959;955.3403;;;;
2019/05/02 03:20:18;;;;;;;14.4;12.7;;;;;;;8.13;67.17773;955.2985;;;;
2019/05/02 03:22:43;;;;;;;13.7;12.3;;;;;;;8.15;68.3125;955.2455;;;;
2019/05/02 03:25:08;;;;;;;13.7;12.3;;;;;;;7.94;68.80664;955.1802;;;;
2019/05/02 03:27:33;;;;;;;15.7;12.7;;;;;;;7.81;69.2998;955.1741;;;;
2019/05/02 03:29:58;;;;;;;14.2;12.4;;;;;;;7.78;69.79785;955.2156;;;;
2019/05/02 03:32:24;;;;;;;13.9;12.4;;;;;;;7.98;68.05762;955.2458;;;;
2019/05/02 03:34:49;;;;;;;14.9;12;;;;;;;8.12;68.18359;955.2213;;;;
2019/05/02 03:37:15;;;;;;;14.5;12.6;;;;;;;8.06;68.58496;955.2266;;;;
2019/05/02 03:39:40;;;;;;;13.9;12.3;;;;;;;7.95;68.30469;955.2143;;;;
2019/05/02 03:42:05;;;;;;;16.3;12.4;;;;;;;7.89;69.66797;955.1456;;;;
2019/05/02 03:44:30;;;;;;;13.7;11.9;;;;;;;7.88;68.75098;955.1894;;;;
2019/05/02 03:46:55;;;;;;;14.3;12.4;;;;;;;7.84;69.71777;955.1497;;;;
2019/05/02 03:49:20;;;;;;;14.3;11.8;;;;;;;7.94;69.08203;955.1283;;;;
2019/05/02 03:51:46;;;;;;;15.6;12.3;;;;;;;7.87;68.99023;955.087;;;;
2019/05/02 03:54:11;;;;;;;14.1;11.8;;;;;;;7.69;68.6416;955.0547;;;;
2019/05/02 03:56:36;;;;;;;15.4;12.8;;;;;;;7.58;69.47949;955.0812;;;;
2019/05/02 03:59:01;;;;;;;14.7;12.5;;;;;;;7.6;71.15332;955.0616;;;;
2019/05/02 04:02:26;;;;;;;14.8;12;;;;;;;7.51;71.00098;955.0474;;;;
2019/05/02 04:04:51;;;;;;;13.6;11.7;;;;;;;7.62;70.66406;955.0772;;;;
2019/05/02 04:07:16;;;;;;;13.9;11.4;;;;;;;7.64;70.85059;955.0931;;;;
2019/05/02 04:09:41;;;;;;;13.3;11.9;;;;;;;7.61;71.26855;955.0779;;;;
2019/05/02 04:12:07;;;;;;;15.7;11;;;;;;;7.65;70.62305;955.0405;;;;
2019/05/02 04:14:32;;;;;;;11.4;10.2;;;;;;;7.68;70.46777;955.0339;;;;
2019/05/02 04:16:59;;;;;;;12.4;10.8;;;;;;;7.76;70.41309;955.048;;;;
2019/05/02 04:19:24;;;;;;;12.5;10.6;;;;;;;7.72;70.37207;955.0736;;;;
2019/05/02 04:21:49;;;;;;;11.6;10;;;;;;;7.82;69.42773;955.0566;;;;
2019/05/02 04:24:19;;;;;;;12.2;10;;;;;;;7.9;69.81738;955.0803;;;;
2019/05/02 04:26:44;;;;;;;12.6;10.3;;;;;;;7.85;70.0625;955.0711;;;;
2019/05/02 04:29:11;;;;;;;11.5;9.4;;;;;;;7.75;69.4502;955.1014;;;;
2019/05/02 04:31:36;;;;;;;11.8;9.6;;;;;;;7.74;69.89648;955.067;;;;
2019/05/02 04:34:01;;;;;;;12.8;9.6;;;;;;;7.66;69.62012;955.1042;;;;
2019/05/02 04:36:27;;;;;;;11.2;9.7;;;;;;;7.7;70.19629;955.041;;;;
2019/05/02 04:38:52;;;;;;;10.8;9.5;;;;;;;7.72;69.42285;955.0865;;;;
2019/05/02 04:41:17;;;;;;;10.5;9.2;;;;;;;7.72;70.40625;955.0909;;;;
2019/05/02 04:43:42;;;;;;;12.1;9.4;;;;;;;7.74;70.15723;955.0806;;;;
2019/05/02 04:46:07;;;;;;;11;9;;;;;;;7.77;69.62598;955.0903;;;;
2019/05/02 04:48:32;;;;;;;10.5;8.7;;;;;;;7.7;70.33301;955.0539;;;;
2019/05/02 04:50:58;;;;;;;13;8.7;;;;;;;7.83;69.85352;955.0552;;;;
2019/05/02 04:53:23;;;;;;;10.6;9.1;;;;;;;7.75;69.51855;955.0406;;;;
2019/05/02 04:55:48;;;;;;;11.6;8.3;;;;;;;7.73;70.7959;955.0944;;;;
2019/05/02 04:58:13;;;;;;;11.6;8.8;;;;;;;7.76;70.6875;955.1259;;;;
2019/05/02 05:00:38;;;;;;;12.1;9.4;;;;;;;7.82;71.32617;955.1304;;;;
2019/05/02 05:03:03;;;;;;;11.1;8.4;;;;;;;7.94;71.07031;955.103;;;;
2019/05/02 05:05:28;;;;;;;11;8.7;;;;;;;8.08;69.87012;955.0955;;;;
2019/05/02 05:07:54;;;;;;;12.8;9.7;;;;;;;7.97;69.44238;955.0867;;;;
2019/05/02 05:10:19;;;;;;;13.4;10.3;;;;;;;7.95;69.36719;955.1323;;;;
2019/05/02 05:12:44;;;;;;;12.9;10.6;;;;;;;7.95;70.82227;955.1576;;;;
2019/05/02 05:15:09;;;;;;;13.8;10.3;;;;;;;8.01;70.03027;955.1791;;;;
2019/05/02 05:17:34;;;;;;;11.7;9;;;;;;;8.1;70.36621;955.2184;;;;
2019/05/02 05:19:59;;;;;;;12.3;9;;;;;;;8.14;71.23047;955.1983;;;;
2019/05/02 05:22:26;;;;;;;10.3;8.3;;;;;;;8.26;69.96875;955.2488;;;;
2019/05/02 05:25:03;;;;;;;10.5;8;;;;;;;8.21;70.16602;955.2006;;;;
2019/05/02 05:27:17;;;;;;;11.2;8.5;;;;;;;8.22;70.45215;955.1917;;;;
2019/05/02 05:29:42;;;;;;;8.8;7.9;;;;;;;8.32;70.17285;955.1827;;;;
2019/05/02 05:32:07;;;;;;;11.7;8.2;;;;;;;8.47;69.85254;955.1883;;;;
2019/05/02 05:34:32;;;;;;;8.8;7.7;;;;;;;8.56;69.71973;955.1926;;;;
2019/05/02 05:36:57;;;;;;;11.1;7.3;;;;;;;8.82;65.62305;955.1526;;;;
2019/05/02 05:39:23;;;;;;;10.9;7.7;;;;;;;8.98;67.27441;955.1825;;;;
2019/05/02 05:41:48;;;;;;;12.7;7.8;;;;;;;8.96;67.81055;955.2364;;;;
2019/05/02 05:44:13;;;;;;;11.7;8;;;;;;;9.02;67.06543;955.2651;;;;
2019/05/02 05:46:38;;;;;;;10;8;;;;;;;9.1;68.5791;955.2285;;;;
2019/05/02 05:49:03;;;;;;;13.7;8.4;;;;;;;9.17;68.42871;955.3003;;;;
2019/05/02 05:51:29;;;;;;;13;7.8;;;;;;;9.23;67.70508;955.2728;;;;
2019/05/02 05:53:54;;;;;;;15.8;8.2;;;;;;;9.38;66.4541;955.329;;;;
2019/05/02 05:56:19;;;;;;;16.2;8.2;;;;;;;9.51;65.39453;955.2351;;;;
2019/05/02 05:58:44;;;;;;;14.4;8.3;;;;;;;9.54;66.06543;955.2885;;;;
2019/05/02 06:01:10;;;;;;;11.7;7.9;;;;;;;9.63;64.31055;955.2671;;;;
2019/05/02 06:03:35;;;;;;;11.4;8.9;;;;;;;9.67;63.18066;955.2679;;;;
2019/05/02 06:06:00;;;;;;;13;8.3;;;;;;;9.68;62.30859;955.2712;;;;
2019/05/02 06:08:25;;;;;;;11.6;8.2;;;;;;;9.7;63.34473;955.283;;;;
2019/05/02 06:10:50;;;;;;;11.7;7.9;;;;;;;9.78;62.44922;955.1883;;;;
2019/05/02 06:13:15;;;;;;;10.4;7.7;;;;;;;9.92;61.97559;955.2276;;;;
2019/05/02 06:15:40;;;;;;;10;7.7;;;;;;;10.07;63.18066;955.2354;;;;
2019/05/02 06:18:05;;;;;;;15.7;8.2;;;;;;;10.14;60.61523;955.1817;;;;
2019/05/02 06:20:31;;;;;;;14.3;7.9;;;;;;;10.23;62.43457;955.2336;;;;
2019/05/02 06:22:56;;;;;;;11.4;7.5;;;;;;;10.39;61.51465;955.2319;;;;
2019/05/02 06:25:23;;;;;;;11;8.1;;;;;;;10.55;60.26953;955.2134;;;;
2019/05/02 06:27:48;;;;;;;12.6;7.9;;;;;;;10.6;60.27637;955.2303;;;;
2019/05/02 06:30:15;;;;;;;14;7.6;;;;;;;10.64;59.58105;955.2307;;;;
2019/05/02 06:32:40;;;;;;;10.5;7.7;;;;;;;10.7;60.01563;955.2722;;;;
2019/05/02 06:35:07;;;;;;;9.1;7;;;;;;;10.9;59.55957;955.2451;;;;
2019/05/02 06:37:32;;;;;;;9.9;7.3;;;;;;;10.97;59.91602;955.3159;;;;
2019/05/02 06:39:57;;;;;;;19.4;8.5;;;;;;;11.05;59.10645;955.3396;;;;
2019/05/02 06:42:23;;;;;;;15.5;8.4;;;;;;;11.22;58.91113;955.2449;;;;
2019/05/02 06:44:48;;;;;;;9.9;7.6;;;;;;;11.41;57.49707;955.2386;;;;
2019/05/02 06:47:13;;;;;;;10.7;7.5;;;;;;;11.53;57.74219;955.2405;;;;
2019/05/02 06:49:38;;;;;;;12.8;7.6;;;;;;;11.65;57.67773;955.2413;;;;
2019/05/02 06:52:03;;;;;;;17.9;8;;;;;;;11.78;56.59961;955.2545;;;;
2019/05/02 06:54:28;;;;;;;9.4;7;;;;;;;11.98;56.12891;955.1998;;;;
2019/05/02 06:56:53;;;;;;;11.6;7.1;;;;;;;12.13;56.16992;955.1902;;;;
2019/05/02 06:59:18;;;;;;;9.8;7.2;;;;;;;12.26;55.27344;955.1941;;;;
2019/05/02 07:01:44;;;;;;;66.3;12.4;;;;;;;12.38;54.78125;955.1996;;;;
2019/05/02 07:04:09;;;;;;;11.2;7.7;;;;;;;12.51;53.05273;955.1947;;;;
2019/05/02 07:06:34;;;;;;;12.9;7.6;;;;;;;12.52;53.68848;955.1808;;;;
2019/05/02 07:08:59;;;;;;;53.3;12.4;;;;;;;12.68;53.67383;955.1469;;;;
2019/05/02 07:11:24;;;;;;;13.2;7.8;;;;;;;12.71;52.58984;955.1266;;;;
2019/05/02 07:13:49;;;;;;;14.5;8.1;;;;;;;12.66;52.31934;955.1789;;;;
2019/05/02 07:18:46;;;;;;;18.7;8.6;;;;;;;12.72;52.14063;955.2258;;;;
2019/05/02 07:21:04;;;;;;;10.6;7.4;;;;;;;12.7;53.08691;955.1667;;;;
2019/05/02 07:23:31;;;;;;;17.6;8.6;;;;;;;12.8;53.59668;955.1694;;;;
2019/05/02 07:25:57;;;;;;;15.2;8.2;;;;;;;12.91;53.41309;955.0881;;;;
2019/05/02 07:28:24;;;;;;;22.8;8.8;;;;;;;13.02;52.66309;955.1284;;;;
2019/05/02 07:30:49;;;;;;;19.2;9.1;;;;;;;13.03;52.93066;955.1588;;;;
2019/05/02 07:33:15;;;;;;;10.5;8.3;;;;;;;13.05;51.9375;955.1433;;;;
2019/05/02 07:35:41;;;;;;;65;14.6;;;;;;;13.17;51.58105;955.087;;;;
2019/05/02 07:38:08;;;;;;;19.2;9.3;;;;;;;13.22;52.02734;955.1213;;;;
2019/05/02 07:40:34;;;;;;;13.2;8.6;;;;;;;13.28;52.19727;955.1367;;;;
2019/05/02 07:42:59;;;;;;;19.9;8.7;;;;;;;13.44;52.2627;955.05;;;;
2019/05/02 07:45:24;;;;;;;12.3;8.8;;;;;;;13.48;51.39844;955.0801;;;;
2019/05/02 07:47:49;;;;;;;34.5;10.5;;;;;;;13.5;51.83008;955.1089;;;;
2019/05/02 07:50:15;;;;;;;18.1;9.2;;;;;;;13.62;52.17871;955.0795;;;;
2019/05/02 07:52:40;;;;;;;66.3;14.8;;;;;;;13.62;51.63379;955.0313;;;;
2019/05/02 07:55:06;;;;;;;12.7;8.5;;;;;;;13.69;51.30664;955.1024;;;;
2019/05/02 07:57:31;;;;;;;15.7;9;;;;;;;13.92;50.08105;955.0817;;;;
2019/05/02 07:59:56;;;;;;;14.6;8.9;;;;;;;13.84;50.71094;955.103;;;;
2019/05/02 08:02:22;;;;;;;11.3;8.7;;;;;;;13.93;50.75488;955.1333;;;;
2019/05/02 08:04:47;;;;;;;15.2;9.1;;;;;;;13.92;50.68457;955.1161;;;;
2019/05/02 08:07:12;;;;;;;13.7;9.1;;;;;;;14.02;50.16211;955.0798;;;;
2019/05/02 08:09:37;;;;;;;16.4;8.8;;;;;;;14.11;49.95215;955.0789;;;;
2019/05/02 08:12:02;;;;;;;63;14.4;;;;;;;14.17;49.9707;955.0672;;;;
2019/05/02 08:14:27;;;;;;;27.8;10.3;;;;;;;14.22;49.72168;955.0574;;;;
2019/05/02 08:16:52;;;;;;;11.2;9;;;;;;;14.32;49.4082;955.0422;;;;
2019/05/02 08:19:18;;;;;;;19.1;9;;;;;;;14.35;49.875;955.0652;;;;
2019/05/02 08:21:43;;;;;;;13.7;9.2;;;;;;;14.37;49.81934;955.0455;;;;
2019/05/02 08:24:08;;;;;;;16.6;9.3;;;;;;;14.4;49.9502;954.9815;;;;
2019/05/02 08:29:13;;;;;;;56.7;13.8;;;;;;;14.64;49.03809;955.0424;;;;
2019/05/02 08:31:38;;;;;;;18.1;9.4;;;;;;;14.68;49.22754;955.0118;;;;
2019/05/02 08:34:03;;;;;;;34.3;11.5;;;;;;;14.7;49.83398;955.0709;;;;
2019/05/02 08:36:30;;;;;;;40.9;12.1;;;;;;;14.83;49.32617;955.0259;;;;
2019/05/02 08:38:55;;;;;;;16.3;9.7;;;;;;;14.91;48.96289;954.9993;;;;
2019/05/02 08:41:21;;;;;;;118.7;21.4;;;;;;;15.11;49.19434;955.0032;;;;
2019/05/02 08:43:46;;;;;;;29.5;11.2;;;;;;;15.1;48.87988;955.0433;;;;
2019/05/02 08:46:13;;;;;;;24.2;10.9;;;;;;;15.12;47.9043;954.9356;;;;
2019/05/02 08:48:38;;;;;;;93.9;17.7;;;;;;;15.22;47.84668;954.8848;;;;
2019/05/02 08:51:05;;;;;;;63.8;14.8;;;;;;;15.33;48.5791;954.8818;;;;
2019/05/02 08:53:30;;;;;;;33.8;11.7;;;;;;;15.4;47.57422;954.7727;;;;
2019/05/02 08:55:57;;;;;;;13.8;9.3;;;;;;;15.61;46.16602;954.8403;;;;
2019/05/02 08:58:22;;;;;;;164.1;24.7;;;;;;;15.65;44.91211;954.8358;;;;
2019/05/02 09:00:48;;;;;;;42.9;11.9;;;;;;;15.61;45.32617;954.8409;;;;
2019/05/02 09:03:13;;;;;;;109;18.9;;;;;;;15.64;45.66797;954.8455;;;;
2019/05/02 09:05:39;;;;;;;81.5;16.9;;;;;;;15.73;45.93359;954.818;;;;
2019/05/02 09:08:04;;;;;;;15.8;9.5;;;;;;;15.75;44.08301;954.8073;;;;
2019/05/02 09:10:29;;;;;;;13.6;8.9;;;;;;;15.94;43.1123;954.7372;;;;
2019/05/02 09:12:55;;;;;;;14.6;8.8;;;;;;;15.92;43.30859;954.7969;;;;
2019/05/02 09:15:20;;;;;;;47;12.9;;;;;;;15.96;43.26465;954.7569;;;;
2019/05/02 09:17:46;;;;;;;91;15.2;;;;;;;16.06;42.59961;954.8102;;;;
2019/05/02 09:20:12;;;;;;;38.5;11.5;;;;;;;16.14;42.26953;954.8405;;;;
2019/05/02 09:22:38;;;;;;;14.8;8.8;;;;;;;16.18;43.82324;954.7833;;;;
2019/05/02 09:25:03;;;;;;;14.4;9.4;;;;;;;16.2;43.20703;954.812;;;;
2019/05/02 09:27:28;;;;;;;15.5;9.8;;;;;;;16.17;42.91309;954.7711;;;;
2019/05/02 09:29:53;;;;;;;15.1;9.9;;;;;;;16.22;43.71191;954.704;;;;
2019/05/02 09:32:19;;;;;;;15.3;9.9;;;;;;;16.28;44.25391;954.71;;;;
2019/05/02 09:34:45;;;;;;;13;9.5;;;;;;;16.41;42.92578;954.6944;;;;
2019/05/02 09:37:10;;;;;;;17.3;9.5;;;;;;;16.55;41.81934;954.669;;;;
2019/05/02 09:39:37;;;;;;;16.7;9.7;;;;;;;16.65;42.16699;954.657;;;;
2019/05/02 09:42:02;;;;;;;13.6;9;;;;;;;16.72;41.06543;954.5698;;;;
2019/05/02 09:44:28;;;;;;;11.7;8;;;;;;;16.71;41.53125;954.5797;;;;
2019/05/02 09:46:53;;;;;;;11.9;8.6;;;;;;;16.74;41.27637;954.5192;;;;
2019/05/02 09:49:18;;;;;;;13.7;8.7;;;;;;;16.72;41.03027;954.4554;;;;
2019/05/02 09:51:43;;;;;;;11.8;8.2;;;;;;;16.86;41.17188;954.4034;;;;
2019/05/02 09:54:08;;;;;;;11.4;8.1;;;;;;;16.86;41.16016;954.4166;;;;
2019/05/02 09:56:33;;;;;;;13.7;9.1;;;;;;;16.99;40.82129;954.4233;;;;
2019/05/02 09:58:59;;;;;;;10.8;7.7;;;;;;;17.1;41.14746;954.3259;;;;
2019/05/02 10:01:42;;;;;;;11.5;8.3;;;;;;;17.15;40.29785;954.2595;;;;
2019/05/02 10:03:49;;;;;;;11.6;8.4;;;;;;;17.16;40.4043;954.3416;;;;
2019/05/02 10:06:15;;;;;;;11.7;8.3;;;;;;;17.28;40.87207;954.1379;;;;
2019/05/02 10:08:40;;;;;;;11.6;8.3;;;;;;;17.58;40.56055;954.2318;;;;
2019/05/02 10:11:05;;;;;;;11.4;7.7;;;;;;;17.57;40.34863;954.1324;;;;
2019/05/02 10:13:30;;;;;;;11.4;7.9;;;;;;;17.41;39.36426;954.2049;;;;
2019/05/02 10:15:56;;;;;;;11.8;7.4;;;;;;;17.51;38.79883;954.1228;;;;
2019/05/02 10:18:23;;;;;;;9.4;6.6;;;;;;;17.57;39.21387;954.027;;;;
2019/05/02 10:20:48;;;;;;;12.3;7.2;;;;;;;17.76;37.96777;953.9938;;;;
2019/05/02 10:23:13;;;;;;;12;7.2;;;;;;;17.9;37.48828;954.1046;;;;
2019/05/02 10:25:38;;;;;;;9;6.9;;;;;;;18.12;37.20313;953.9445;;;;
2019/05/02 10:28:03;;;;;;;9.2;7.3;;;;;;;18.06;38.04102;953.9127;;;;
2019/05/02 10:30:30;;;;;;;12;7.7;;;;;;;18.13;38.29297;953.9001;;;;
2019/05/02 10:32:54;;;;;;;11.3;7.5;;;;;;;18.38;38.68945;953.8596;;;;
2019/05/02 10:35:22;;;;;;;10.8;8.3;;;;;;;18.69;37.69629;953.8929;;;;
2019/05/02 10:37:47;;;;;;;11.7;7.9;;;;;;;18.68;37.82422;953.8027;;;;
2019/05/02 10:40:12;;;;;;;10.5;7.2;;;;;;;18.99;36.15039;953.775;;;;
2019/05/02 10:42:37;;;;;;;10.1;6.4;;;;;;;19.13;35.69141;953.7754;;;;
2019/05/02 10:45:03;;;;;;;9.1;6.4;;;;;;;19.46;34.9668;953.634;;;;
2019/05/02 10:47:28;;;;;;;10.8;6.6;;;;;;;19.7;34.92676;953.7177;;;;
2019/05/02 10:49:59;;;;;;;10.1;7;;;;;;;19.72;34.56348;953.6445;;;;
2019/05/02 10:52:18;;;;;;;11.1;7.2;;;;;;;19.87;34.22363;953.6595;;;;
2019/05/02 10:54:43;;;;;;;9.1;6.3;;;;;;;20.21;33.49609;953.5648;;;;
2019/05/02 10:57:11;;;;;;;10.1;7;;;;;;;20.68;32.66016;953.5845;;;;
2019/05/02 10:59:37;;;;;;;8.6;6.5;;;;;;;21.45;31.06543;953.4368;;;;
2019/05/02 11:02:23;;;;;;;10.4;6.7;;;;;;;22.9;28.04199;953.4451;;;;
2019/05/02 11:04:27;;;;;;;6.5;5.3;;;;;;;23.68;26.45508;953.519;;;;
2019/05/02 11:06:53;;;;;;;7.2;5.1;;;;;;;23.33;26.05469;953.4082;;;;
2019/05/02 11:09:20;;;;;;;9.2;6.1;;;;;;;23.32;26.19629;953.436;;;;
2019/05/02 11:11:45;;;;;;;8.5;5.7;;;;;;;23.37;26.89844;953.3482;;;;
2019/05/02 11:14:16;;;;;;;9;5.3;;;;;;;24.05;25.71777;953.3436;;;;
2019/05/02 11:16:47;;;;;;;8.2;5.6;;;;;;;23.95;25.12988;953.3109;;;;
2019/05/02 11:19:04;;;;;;;6.8;5.4;;;;;;;24.47;25.33789;953.3111;;;;
2019/05/02 11:21:27;;;;;;;8.1;5;;;;;;;24.68;25.62305;953.2564;;;;
2019/05/02 11:23:52;;;;;;;6;5.1;;;;;;;25.33;24.91016;953.2308;;;;
2019/05/02 11:26:18;;;;;;;9.7;5.2;;;;;;;25.36;24.13867;953.2433;;;;
2019/05/02 11:28:43;;;;;;;8.3;4.7;;;;;;;24.81;24.42969;953.2764;;;;
2019/05/02 11:31:10;;;;;;;9.7;5.2;;;;;;;24.02;25.50195;953.1711;;;;
2019/05/02 11:33:35;;;;;;;7.4;5;;;;;;;23.73;26.00684;953.1397;;;;
2019/05/02 11:36:01;;;;;;;7.6;5.4;;;;;;;24.12;25.61426;953.1068;;;;
2019/05/02 11:38:26;;;;;;;9.1;5;;;;;;;24.5;25.7666;953.1997;;;;
2019/05/02 11:40:51;;;;;;;7.7;5.4;;;;;;;23.94;25.52148;953.1697;;;;
2019/05/02 11:43:16;;;;;;;8.5;6.1;;;;;;;23.49;26.65723;953.118;;;;
2019/05/02 11:45:41;;;;;;;10;5.3;;;;;;;23.75;26.54199;953.1188;;;;
2019/05/02 11:48:06;;;;;;;8.3;5.6;;;;;;;23.39;26.12988;952.9815;;;;
2019/05/02 11:50:31;;;;;;;8.1;5.7;;;;;;;22.92;27.34473;952.9684;;;;
2019/05/02 11:52:57;;;;;;;7.9;5.5;;;;;;;23.8;26.85352;953.0094;;;;
2019/05/02 11:55:22;;;;;;;6.8;5.5;;;;;;;22.82;27.8125;952.9152;;;;
2019/05/02 11:57:47;;;;;;;7.8;4.8;;;;;;;22.88;28.23047;952.8981;;;;
2019/05/02 12:00:12;;;;;;;9.2;5.5;;;;;;;22;29.01367;952.8758;;;;
2019/05/02 12:05:02;;;;;;;68.5;9.2;;;;;;;21.27;31.63086;952.8614;;;;
2019/05/02 12:07:27;;;;;;;9.6;6.1;;;;;;;20.66;30.32715;952.8405;;;;
2019/05/02 12:09:53;;;;;;;8.1;4.9;;;;;;;20.48;31.15039;952.7639;;;;
2019/05/02 12:12:18;;;;;;;8;5.8;;;;;;;20.18;32.02344;952.7603;;;;
2019/05/02 12:14:44;;;;;;;6.9;5.1;;;;;;;20.31;31.08008;952.7385;;;;
2019/05/02 12:17:09;;;;;;;8.1;4.9;;;;;;;21.07;31.67578;952.6989;;;;
2019/05/02 12:19:34;;;;;;;7;5;;;;;;;22.24;28.40234;952.5678;;;;
2019/05/02 12:21:59;;;;;;;7.1;4.9;;;;;;;23.16;27.47754;952.5555;;;;
2019/05/02 12:24:24;;;;;;;7.2;4.9;;;;;;;23.41;26.99609;952.5705;;;;
2019/05/02 12:26:49;;;;;;;8;5;;;;;;;22.61;28.65039;952.6055;;;;
2019/05/02 12:29:15;;;;;;;7.3;5.4;;;;;;;22.4;30.06836;952.6053;;;;
2019/05/02 12:31:40;;;;;;;7.4;5.6;;;;;;;21.71;31.01367;952.5726;;;;
2019/05/02 12:34:05;;;;;;;8.1;5.6;;;;;;;21.14;31.83398;952.5472;;;;
2019/05/02 12:36:30;;;;;;;8.5;5.5;;;;;;;20.74;32.83008;952.6035;;;;
2019/05/02 12:38:55;;;;;;;11.3;5.6;;;;;;;20.39;34.41602;952.5779;;;;
2019/05/02 12:41:20;;;;;;;10.3;5.7;;;;;;;20.9;32.58301;952.4534;;;;
2019/05/02 12:43:45;;;;;;;9.8;5.7;;;;;;;20.85;33.80469;952.4875;;;;
2019/05/02 12:46:11;;;;;;;11.2;5.9;;;;;;;20.71;33.44043;952.56;;;;
2019/05/02 12:48:37;;;;;;;10.8;6.1;;;;;;;20.4;33.31152;952.47;;;;
2019/05/02 12:51:05;;;;;;;8.5;5.6;;;;;;;19.84;34.40918;952.4941;;;;
2019/05/02 12:53:30;;;;;;;8.1;5.4;;;;;;;19.7;33.23535;952.4598;;;;
2019/05/02 12:55:55;;;;;;;13.5;5.7;;;;;;;19.57;34.4707;952.4244;;;;
2019/05/02 12:58:20;;;;;;;9.3;5.8;;;;;;;19.67;35.53613;952.4467;;;;
2019/05/02 13:00:45;;;;;;;11.4;5.8;;;;;;;19.64;36.03809;952.4333;;;;
2019/05/02 13:03:34;;;;;;;11.6;5.7;;;;;;;19.75;35.41309;952.4364;;;;
2019/05/02 13:05:36;;;;;;;22.4;6.6;;;;;;;19.85;34.5625;952.4267;;;;
2019/05/02 13:08:01;;;;;;;16;6;;;;;;;20.35;34.05957;952.3409;;;;
2019/05/02 13:12:52;;;;;;;7.2;5;;;;;;;20.37;33.47266;952.2673;;;;
2019/05/02 13:15:17;;;;;;;9.8;5.3;;;;;;;20.12;33.65527;952.3053;;;;
2019/05/02 13:17:42;;;;;;;8.9;5.2;;;;;;;20.19;34.82422;952.3539;;;;
2019/05/02 13:20:11;;;;;;;10.4;5.5;;;;;;;20.75;32.54785;952.2844;;;;
2019/05/02 13:25:04;;;;;;;8.7;5.3;;;;;;;21.34;30.80957;952.1528;;;;
2019/05/02 13:27:26;;;;;;;8.2;5.5;;;;;;;21.1;33.00977;952.1031;;;;
2019/05/02 13:29:51;;;;;;;9;5.8;;;;;;;21.25;32.08887;952.1077;;;;
2019/05/02 13:34:48;;;;;;;8.7;5.7;;;;;;;22;31.48242;952.0034;;;;
2019/05/02 13:37:10;;;;;;;8.7;5.6;;;;;;;22.33;29.87402;951.9963;;;;
2019/05/02 13:39:39;;;;;;;7.2;5;;;;;;;22.76;31.58301;952.003;;;;
2019/05/02 13:41:58;;;;;;;8.8;5.5;;;;;;;22.87;29.47168;951.9073;;;;
2019/05/02 13:44:27;;;;;;;8.7;5.5;;;;;;;22.83;28.91406;951.9529;;;;
2019/05/02 13:46:50;;;;;;;8.5;4.7;;;;;;;22.77;29.27637;951.8599;;;;
2019/05/02 13:49:16;;;;;;;7.3;5.5;;;;;;;22.56;29.00293;951.8508;;;;
2019/05/02 13:51:42;;;;;;;9.9;5.5;;;;;;;22.2;29.85449;951.762;;;;
2019/05/02 13:54:07;;;;;;;8.5;4.8;;;;;;;22.11;29.96582;951.7673;;;;
2019/05/02 13:56:48;;;;;;;6.8;4.6;;;;;;;22.04;30.26758;951.6669;;;;
2019/05/02 13:58:58;;;;;;;10.3;5;;;;;;;22.05;31.8877;951.7578;;;;
2019/05/02 14:01:23;;;;;;;9.5;4.6;;;;;;;22.22;28.4248;951.7106;;;;
2019/05/02 14:03:48;;;;;;;7.2;4.5;;;;;;;22.08;28.85352;951.5992;;;;
2019/05/02 14:06:14;;;;;;;7.4;4.7;;;;;;;22.06;28.7334;951.6584;;;;
2019/05/02 14:09:25;;;;;;;6.9;4.5;;;;;;;21.83;29.2627;951.6655;;;;
2019/05/02 14:13:30;;;;;;;8.8;6.4;;;;;;;21.54;30.12793;951.5449;;;;
2019/05/02 14:15:55;;;;;;;7.3;5.2;;;;;;;21.51;30.9873;951.5492;;;;
2019/05/02 14:18:20;;;;;;;10.4;5.8;;;;;;;22.06;30.13867;951.5269;;;;
2019/05/02 14:20:45;;;;;;;7.7;5.1;;;;;;;22.43;29.00586;951.5338;;;;
2019/05/02 14:23:13;;;;;;;7.3;5.3;;;;;;;22.4;28.8623;951.5464;;;;
2019/05/02 14:25:38;;;;;;;9.1;5.8;;;;;;;21.56;29.93945;951.5199;;;;
2019/05/02 14:28:05;;;;;;;9.2;5;;;;;;;21.87;30.78809;951.4783;;;;
2019/05/02 14:30:31;;;;;;;6.6;4.5;;;;;;;21.73;33.08105;951.4372;;;;